Time,TemperatureF,DewpointF,PressureIn,WindDirection,WindDirectionDegrees,WindSpeedMPH,WindSpeedGustMPH,Humidity,HourlyPrecipIn,Conditions,Clouds,dailyrainin,SoftwareType,DateUTC
2013-05-08 00:01:00,66.5,61.2,30.04,NW,323,0.0,0.0,83,0.00,CLR,,0.00,WeatherDisplay:10.37,2013-05-08 04:01:00,
2013-05-08 00:06:00,66.5,61.2,30.04,NW,323,0.0,0.0,83,0.00,CLR,,0.00,WeatherDisplay:10.37,2013-05-08 04:06:00,
2013-05-08 00:11:00,66.4,61.1,30.04,NW,323,0.0,0.0,83,0.00,CLR,,0.00,WeatherDisplay:10.37,2013-05-08 04:11:00,
2013-05-08 00:16:00,66.3,61.0,30.04,NW,323,0.0,0.0,83,0.00,CLR,,0.00,WeatherDisplay:10.37,2013-05-08 04:16:00,
2013-05-08 00:21:00,66.1,61.1,30.04,NW,323,0.0,0.0,84,0.00,CLR,,0.00,WeatherDisplay:10.37,2013-05-08 04:21:00,
2013-05-08 00:26:00,66.0,61.0,30.04,NW,323,0.0,0.0,84,0.00,CLR,,0.00,WeatherDisplay:10.37,2013-05-08 04:26:00,
2013-05-08 00:31:00,65.7,60.7,30.04,NW,322,0.0,0.0,84,0.00,CLR,,0.00,WeatherDisplay:10.37,2013-05-08 04:31:00,
2013-05-08 00:36:00,65.5,60.9,30.04,NW,323,0.0,0.0,85,0.00,CLR,,0.00,WeatherDisplay:10.37,2013-05-08 04:36:00,
2013-05-08 00:41:00,65.2,60.6,30.04,NW,323,0.0,0.0,85,0.00,CLR,,0.00,WeatherDisplay:10.37,2013-05-08 04:41:00,
2013-05-08 00:46:00,65.5,61.2,30.04,North,349,0.0,0.0,86,0.00,CLR,,0.00,WeatherDisplay:10.37,2013-05-08 04:46:00,
2013-05-08 00:51:00,65.5,60.9,30.04,North,350,0.0,0.0,85,0.00,CLR,,0.00,WeatherDisplay:10.37,2013-05-08 04:51:00,
2013-05-08 00:57:00,65.6,61.3,30.04,North,350,0.0,0.0,86,0.00,CLR,,0.00,WeatherDisplay:10.37,2013-05-08 04:57:00,
2013-05-08 01:02:00,65.6,61.0,30.04,North,350,0.0,0.0,85,0.00,CLR,,0.00,WeatherDisplay:10.37,2013-05-08 05:02:00,
2013-05-08 01:07:00,65.4,61.1,30.04,North,349,0.0,0.0,86,0.00,CLR,,0.00,WeatherDisplay:10.37,2013-05-08 05:07:00,
2013-05-08 01:12:00,65.1,60.8,30.04,North,350,0.0,0.0,86,0.00,CLR,,0.00,WeatherDisplay:10.37,2013-05-08 05:12:00,
2013-05-08 01:17:00,64.9,60.6,30.04,North,349,0.0,0.0,86,0.00,CLR,,0.00,WeatherDisplay:10.37,2013-05-08 05:17:00,
2013-05-08 01:22:00,64.5,60.5,30.04,North,349,0.0,0.0,87,0.00,CLR,,0.00,WeatherDisplay:10.37,2013-05-08 05:22:00,
2013-05-08 01:27:00,64.7,61.1,30.04,North,350,0.0,0.0,88,0.00,CLR,,0.00,WeatherDisplay:10.37,2013-05-08 05:27:00,
2013-05-08 01:32:00,64.8,61.2,30.04,North,349,0.0,0.0,88,0.00,CLR,,0.00,WeatherDisplay:10.37,2013-05-08 05:32:00,
2013-05-08 01:37:00,64.5,60.5,30.04,North,349,0.0,0.0,87,0.00,CLR,,0.00,WeatherDisplay:10.37,2013-05-08 05:37:00,
2013-05-08 01:42:00,64.5,61.2,30.03,North,349,0.0,0.0,89,0.00,CLR,,0.00,WeatherDisplay:10.37,2013-05-08 05:42:00,
2013-05-08 01:47:00,64.6,61.3,30.03,North,349,0.0,0.0,89,0.00,CLR,,0.00,WeatherDisplay:10.37,2013-05-08 05:47:00,
2013-05-08 01:52:00,64.5,61.2,30.03,North,350,0.0,0.0,89,0.00,CLR,,0.00,WeatherDisplay:10.37,2013-05-08 05:52:00,
2013-05-08 01:57:00,64.3,60.7,30.03,North,350,0.0,0.0,88,0.00,CLR,,0.00,WeatherDisplay:10.37,2013-05-08 05:57:00,
2013-05-08 02:02:00,64.2,60.9,30.03,North,350,0.0,0.0,89,0.00,CLR,,0.00,WeatherDisplay:10.37,2013-05-08 06:02:00,
2013-05-08 02:07:00,64.0,60.7,30.03,North,349,0.0,0.0,89,0.00,CLR,,0.00,WeatherDisplay:10.37,2013-05-08 06:07:00,
2013-05-08 02:12:00,63.9,60.9,30.03,North,349,0.0,0.0,90,0.00,CLR,,0.00,WeatherDisplay:10.37,2013-05-08 06:12:00,
2013-05-08 02:17:00,63.7,60.4,30.03,North,350,0.0,0.0,89,0.00,CLR,,0.00,WeatherDisplay:10.37,2013-05-08 06:17:00,
2013-05-08 02:22:00,63.7,60.7,30.03,North,349,0.0,0.0,90,0.00,CLR,,0.00,WeatherDisplay:10.37,2013-05-08 06:22:00,
2013-05-08 02:27:00,63.7,61.0,30.03,North,350,0.0,0.0,91,0.00,CLR,,0.00,WeatherDisplay:10.37,2013-05-08 06:27:00,
2013-05-08 02:32:00,63.6,60.9,30.03,North,351,0.0,0.0,91,0.00,CLR,,0.00,WeatherDisplay:10.37,2013-05-08 06:32:00,
2013-05-08 02:37:00,63.4,60.7,30.03,North,350,0.0,0.0,91,0.00,CLR,,0.00,WeatherDisplay:10.37,2013-05-08 06:37:00,
2013-05-08 02:42:00,63.3,60.6,30.03,North,349,0.0,0.0,91,0.00,CLR,,0.00,WeatherDisplay:10.37,2013-05-08 06:42:00,
2013-05-08 02:47:00,63.2,60.5,30.03,North,350,0.0,0.0,91,0.00,CLR,,0.00,WeatherDisplay:10.37,2013-05-08 06:47:00,
2013-05-08 02:52:00,63.0,60.6,30.03,North,350,0.0,0.0,92,0.00,CLR,,0.00,WeatherDisplay:10.37,2013-05-08 06:52:00,
2013-05-08 02:57:00,62.9,60.5,30.03,North,350,0.0,0.0,92,0.00,CLR,,0.00,WeatherDisplay:10.37,2013-05-08 06:57:00,
2013-05-08 03:02:00,62.5,60.1,30.03,North,350,0.0,0.0,92,0.00,CLR,,0.00,WeatherDisplay:10.37,2013-05-08 07:02:00,
2013-05-08 03:07:00,62.3,59.9,30.02,North,350,0.0,0.0,92,0.00,CLR,,0.00,WeatherDisplay:10.37,2013-05-08 07:07:00,
2013-05-08 03:12:00,62.5,60.4,30.02,North,350,0.0,0.0,93,0.00,CLR,,0.00,WeatherDisplay:10.37,2013-05-08 07:12:00,
2013-05-08 03:17:00,62.3,60.2,30.02,North,350,0.0,0.0,93,0.00,CLR,,0.00,WeatherDisplay:10.37,2013-05-08 07:17:00,
2013-05-08 03:22:00,62.2,60.2,30.02,North,349,0.0,0.0,93,0.00,CLR,,0.00,WeatherDisplay:10.37,2013-05-08 07:22:00,
2013-05-08 03:27:00,62.2,60.2,30.02,North,349,0.0,0.0,93,0.00,CLR,,0.00,WeatherDisplay:10.37,2013-05-08 07:27:00,
2013-05-08 03:32:00,62.4,60.7,30.03,North,350,0.0,0.0,94,0.00,CLR,,0.00,WeatherDisplay:10.37,2013-05-08 07:32:00,
2013-05-08 03:37:00,62.5,60.7,30.03,North,351,0.0,0.0,94,0.00,CLR,,0.00,WeatherDisplay:10.37,2013-05-08 07:37:00,
2013-05-08 03:42:00,62.5,60.7,30.03,North,351,0.0,0.0,94,0.00,CLR,,0.00,WeatherDisplay:10.37,2013-05-08 07:42:00,
2013-05-08 03:47:00,62.2,60.2,30.03,North,351,0.0,0.0,93,0.00,CLR,,0.00,WeatherDisplay:10.37,2013-05-08 07:47:00,
2013-05-08 03:52:00,62.0,60.0,30.03,North,350,0.0,0.0,93,0.00,CLR,,0.00,WeatherDisplay:10.37,2013-05-08 07:52:00,
2013-05-08 03:57:00,61.9,59.9,30.03,North,350,0.0,0.0,93,0.00,CLR,,0.00,WeatherDisplay:10.37,2013-05-08 07:57:00,
2013-05-08 04:02:00,61.9,60.2,30.03,North,350,0.0,0.0,94,0.00,CLR,,0.00,WeatherDisplay:10.37,2013-05-08 08:02:00,
2013-05-08 04:07:00,62.0,60.3,30.03,North,350,0.0,0.0,94,0.00,CLR,,0.00,WeatherDisplay:10.37,2013-05-08 08:07:00,
2013-05-08 04:12:00,62.1,60.4,30.03,North,353,0.0,0.0,94,0.00,CLR,,0.00,WeatherDisplay:10.37,2013-05-08 08:12:00,
2013-05-08 04:17:00,61.8,60.1,30.03,North,352,0.0,0.0,94,0.00,CLR,,0.00,WeatherDisplay:10.37,2013-05-08 08:17:00,
2013-05-08 04:22:00,61.8,60.1,30.03,North,353,0.0,0.0,94,0.00,CLR,,0.00,WeatherDisplay:10.37,2013-05-08 08:22:00,
2013-05-08 04:27:00,61.7,60.0,30.03,North,353,0.0,0.0,94,0.00,CLR,,0.00,WeatherDisplay:10.37,2013-05-08 08:27:00,
2013-05-08 04:32:00,61.5,59.8,30.03,North,352,0.0,0.0,94,0.00,CLR,,0.00,WeatherDisplay:10.37,2013-05-08 08:32:00,
2013-05-08 04:37:00,61.4,59.7,30.03,North,353,0.0,0.0,94,0.00,CLR,,0.00,WeatherDisplay:10.37,2013-05-08 08:37:00,
2013-05-08 04:42:00,61.2,59.5,30.04,North,352,0.0,0.0,94,0.00,CLR,,0.00,WeatherDisplay:10.37,2013-05-08 08:42:00,
2013-05-08 04:47:00,61.2,59.8,30.04,North,353,0.0,0.0,95,0.00,CLR,,0.00,WeatherDisplay:10.37,2013-05-08 08:47:00,
2013-05-08 04:52:00,61.1,59.7,30.04,North,353,0.0,0.0,95,0.00,CLR,,0.00,WeatherDisplay:10.37,2013-05-08 08:52:00,
2013-05-08 04:57:00,61.1,59.7,30.04,North,353,0.0,0.0,95,0.00,CLR,,0.00,WeatherDisplay:10.37,2013-05-08 08:57:00,
2013-05-08 05:02:00,61.1,59.7,30.04,North,352,0.0,0.0,95,0.00,CLR,,0.00,WeatherDisplay:10.37,2013-05-08 09:02:00,
2013-05-08 05:07:00,61.1,59.7,30.04,North,353,0.0,0.0,95,0.00,CLR,,0.00,WeatherDisplay:10.37,2013-05-08 09:07:00,
2013-05-08 05:12:00,61.0,59.6,30.04,North,352,0.0,0.0,95,0.00,CLR,,0.00,WeatherDisplay:10.37,2013-05-08 09:12:00,
2013-05-08 05:17:00,61.0,59.6,30.04,North,352,0.0,0.0,95,0.00,CLR,,0.00,WeatherDisplay:10.37,2013-05-08 09:17:00,
2013-05-08 05:22:00,60.9,59.5,30.04,North,352,0.0,0.0,95,0.00,CLR,,0.00,WeatherDisplay:10.37,2013-05-08 09:22:00,
2013-05-08 07:55:00,62.5,61.6,30.08,North,353,0.0,0.0,97,0.00,CLR,,0.00,WeatherDisplay:10.37,2013-05-08 11:55:00,
2013-05-08 08:00:00,62.7,61.8,30.09,North,352,0.0,0.0,97,0.00,CLR,,0.00,WeatherDisplay:10.37,2013-05-08 12:00:00,
2013-05-08 08:05:00,63.2,62.3,30.09,North,352,0.0,0.0,97,0.00,CLR,,0.00,WeatherDisplay:10.37,2013-05-08 12:05:00,
2013-05-08 08:10:00,63.8,62.9,30.09,North,353,0.0,0.0,97,0.00,CLR,,0.00,WeatherDisplay:10.37,2013-05-08 12:10:00,
2013-05-08 08:15:00,64.3,63.4,30.09,NNW,342,0.0,0.0,97,0.00,CLR,,0.00,WeatherDisplay:10.37,2013-05-08 12:15:00,
2013-05-08 08:20:00,64.9,63.7,30.09,NNW,343,0.0,0.0,96,0.00,CLR,,0.00,WeatherDisplay:10.37,2013-05-08 12:20:00,
2013-05-08 08:25:00,65.6,63.8,30.09,North,354,0.0,0.0,94,0.00,CLR,,0.00,WeatherDisplay:10.37,2013-05-08 12:25:00,
2013-05-08 08:30:00,67.0,63.6,30.09,NNW,331,0.0,0.0,89,0.00,CLR,,0.00,WeatherDisplay:10.37,2013-05-08 12:30:00,
2013-05-08 08:35:00,68.4,63.0,30.10,North,9,0.4,2.3,83,0.00,CLR,,0.00,WeatherDisplay:10.37,2013-05-08 12:35:00,
2013-05-08 08:40:00,69.4,62.6,30.10,South,186,0.0,0.0,79,0.00,CLR,,0.00,WeatherDisplay:10.37,2013-05-08 12:40:00,
2013-05-08 08:45:00,70.1,61.8,30.10,NW,312,0.2,1.1,75,0.00,CLR,,0.00,WeatherDisplay:10.37,2013-05-08 12:45:00,
2013-05-08 08:50:00,70.7,61.2,30.10,NNW,333,0.4,1.1,72,0.00,CLR,,0.00,WeatherDisplay:10.37,2013-05-08 12:50:00,
2013-05-08 08:55:00,71.3,61.0,30.10,North,358,0.5,1.1,70,0.00,CLR,,0.00,WeatherDisplay:10.37,2013-05-08 12:55:00,
2013-05-08 09:00:00,71.8,61.1,30.10,SSW,212,0.0,1.1,69,0.00,CLR,,0.00,WeatherDisplay:10.37,2013-05-08 13:00:00,
2013-05-08 09:05:00,72.5,62.2,30.10,North,353,0.5,1.1,70,0.00,CLR,,0.00,WeatherDisplay:10.37,2013-05-08 13:05:00,
2013-05-08 09:10:00,72.8,61.2,30.10,NNW,331,1.2,3.0,67,0.00,CLR,,0.00,WeatherDisplay:10.37,2013-05-08 13:10:00,
2013-05-08 09:15:00,73.0,61.4,30.11,West,273,0.4,2.3,67,0.00,CLR,,0.00,WeatherDisplay:10.37,2013-05-08 13:15:00,
2013-05-08 09:20:00,73.1,61.1,30.11,North,359,1.9,3.5,66,0.00,CLR,,0.00,WeatherDisplay:10.37,2013-05-08 13:20:00,
2013-05-08 09:25:00,73.2,61.6,30.11,WSW,249,1.8,4.0,67,0.00,CLR,,0.00,WeatherDisplay:10.37,2013-05-08 13:25:00,
2013-05-08 09:30:00,73.8,60.9,30.11,SSE,165,1.4,3.5,64,0.00,CLR,,0.00,WeatherDisplay:10.37,2013-05-08 13:30:00,
2013-05-08 09:35:00,73.8,60.9,30.11,SW,222,1.6,3.5,64,0.00,CLR,,0.00,WeatherDisplay:10.37,2013-05-08 13:35:00,
2013-05-08 09:40:00,73.3,60.4,30.11,South,171,1.3,3.5,64,0.00,CLR,,0.00,WeatherDisplay:10.37,2013-05-08 13:40:00,
2013-05-08 09:45:00,73.7,61.2,30.11,West,274,1.2,2.3,65,0.00,CLR,,0.00,WeatherDisplay:10.37,2013-05-08 13:45:00,
2013-05-08 09:50:00,74.0,61.0,30.11,North,349,4.3,5.8,64,0.00,CLR,,0.00,WeatherDisplay:10.37,2013-05-08 13:50:00,
2013-05-08 09:55:00,73.8,60.9,30.11,NE,51,3.2,5.0,64,0.00,CLR,,0.00,WeatherDisplay:10.37,2013-05-08 13:55:00,
2013-05-08 10:00:00,73.5,61.9,30.11,North,360,0.5,2.0,67,0.00,CLR,,0.00,WeatherDisplay:10.37,2013-05-08 14:00:00,
2013-05-08 10:05:00,74.0,60.6,30.11,NW,322,2.0,3.5,63,0.00,SCT,,0.00,WeatherDisplay:10.37,2013-05-08 14:05:00,
2013-05-08 10:10:00,73.7,60.8,30.11,NNW,343,1.3,2.3,64,0.00,SCT,,0.00,WeatherDisplay:10.37,2013-05-08 14:10:00,
2013-05-08 10:15:00,73.2,60.7,30.11,WNW,296,0.4,1.1,65,0.00,SCT,,0.00,WeatherDisplay:10.37,2013-05-08 14:15:00,
2013-05-08 10:20:00,73.1,60.2,30.11,NNE,31,0.4,2.3,64,0.00,SCT,,0.00,WeatherDisplay:10.37,2013-05-08 14:20:00,
2013-05-08 10:25:00,73.9,61.0,30.11,NNE,16,1.0,2.3,64,0.00,SCT,,0.00,WeatherDisplay:10.37,2013-05-08 14:25:00,
2013-05-08 10:30:00,74.2,61.2,30.12,NNW,333,1.0,2.3,64,0.00,SCT,,0.00,WeatherDisplay:10.37,2013-05-08 14:30:00,
2013-05-08 10:35:00,73.9,61.4,30.12,North,360,0.7,2.3,65,0.00,SCT,,0.00,WeatherDisplay:10.37,2013-05-08 14:35:00,
2013-05-08 10:40:00,73.8,61.7,30.12,NNW,332,0.6,2.3,66,0.00,SCT,,0.00,WeatherDisplay:10.37,2013-05-08 14:40:00,
2013-05-08 10:45:00,74.2,61.7,30.12,North,353,3.4,6.0,65,0.00,SCT,,0.00,WeatherDisplay:10.37,2013-05-08 14:45:00,
2013-05-08 10:50:00,75.0,62.0,30.12,SSE,154,1.1,2.3,64,0.00,SCT,,0.00,WeatherDisplay:10.37,2013-05-08 14:50:00,
2013-05-08 10:55:00,74.9,61.9,30.12,ESE,102,1.2,2.3,64,0.00,SCT,,0.00,WeatherDisplay:10.37,2013-05-08 14:55:00,
2013-05-08 11:00:00,75.1,61.6,30.12,SSE,162,1.0,3.5,63,0.00,SCT,,0.00,WeatherDisplay:10.37,2013-05-08 15:00:00,
2013-05-08 11:05:00,76.2,61.3,30.12,SW,219,2.6,3.5,60,0.00,SCT,,0.00,WeatherDisplay:10.37,2013-05-08 15:05:00,
2013-05-08 11:10:00,76.2,61.8,30.12,West,262,1.9,2.3,61,0.00,SCT,,0.00,WeatherDisplay:10.37,2013-05-08 15:10:00,
2013-05-08 11:15:00,76.1,62.6,30.12,West,266,0.3,3.5,63,0.00,SCT,,0.00,WeatherDisplay:10.37,2013-05-08 15:15:00,
2013-05-08 11:20:00,76.8,62.8,30.12,NW,315,0.9,2.3,62,0.00,SCT,,0.00,WeatherDisplay:10.37,2013-05-08 15:20:00,
2013-05-08 11:25:00,77.2,62.7,30.12,SW,228,1.9,2.3,61,0.00,CLR,,0.00,WeatherDisplay:10.37,2013-05-08 15:25:00,
2013-05-08 11:30:00,77.3,61.9,30.12,SW,236,0.8,3.5,59,0.00,CLR,,0.00,WeatherDisplay:10.37,2013-05-08 15:30:00,
2013-05-08 11:35:00,77.5,62.0,30.12,South,173,0.9,3.5,59,0.00,CLR,,0.00,WeatherDisplay:10.37,2013-05-08 15:35:00,
2013-05-08 11:40:00,77.5,61.1,30.12,WSW,252,3.9,6.9,57,0.00,CLR,,0.00,WeatherDisplay:10.37,2013-05-08 15:40:00,
2013-05-08 11:45:00,77.7,60.8,30.12,SSW,210,1.4,3.5,56,0.00,CLR,,0.00,WeatherDisplay:10.37,2013-05-08 15:45:00,
2013-05-08 11:50:00,78.3,62.3,30.12,SW,233,2.2,3.5,58,0.00,CLR,,0.00,WeatherDisplay:10.37,2013-05-08 15:50:00,
2013-05-08 11:55:00,78.6,61.1,30.12,WNW,298,2.9,3.5,55,0.00,CLR,,0.00,WeatherDisplay:10.37,2013-05-08 15:55:00,
2013-05-08 12:00:00,78.0,62.0,30.12,NNW,345,1.2,2.3,58,0.00,CLR,,0.00,WeatherDisplay:10.37,2013-05-08 16:00:00,
2013-05-08 12:05:00,78.1,62.6,30.12,ENE,57,2.6,4.6,59,0.00,CLR,,0.00,WeatherDisplay:10.37,2013-05-08 16:05:00,
2013-05-08 13:37:00,77.7,60.8,30.11,SSE,163,2.5,9.2,56,0.00,CLR,,0.00,WeatherDisplay:10.37,2013-05-08 17:37:00,
2013-05-08 13:42:00,77.4,60.5,30.10,WNW,300,2.1,3.5,56,0.00,CLR,,0.00,WeatherDisplay:10.37,2013-05-08 17:42:00,
2013-05-08 13:47:00,77.4,60.5,30.11,NW,306,2.4,4.6,56,0.00,CLR,,0.00,WeatherDisplay:10.37,2013-05-08 17:47:00,
2013-05-08 13:52:00,78.1,60.6,30.11,SW,214,0.8,3.5,55,0.00,CLR,,0.00,WeatherDisplay:10.37,2013-05-08 17:52:00,
2013-05-08 13:57:00,77.9,60.9,30.10,WNW,291,1.5,4.6,56,0.00,CLR,,0.00,WeatherDisplay:10.37,2013-05-08 17:57:00,
2013-05-08 14:02:00,78.2,60.7,30.11,SSW,200,1.2,3.5,55,0.00,CLR,,0.00,WeatherDisplay:10.37,2013-05-08 18:02:00,
2013-05-08 14:07:00,78.4,60.4,30.10,WSW,237,5.3,7.0,54,0.00,CLR,,0.00,WeatherDisplay:10.37,2013-05-08 18:07:00,
2013-05-08 14:12:00,77.6,60.2,30.10,SSW,195,3.0,8.1,55,0.00,CLR,,0.00,WeatherDisplay:10.37,2013-05-08 18:12:00,
2013-05-08 14:17:00,77.9,61.9,30.10,West,259,2.4,4.0,58,0.00,CLR,,0.00,WeatherDisplay:10.37,2013-05-08 18:17:00,
2013-05-08 14:22:00,78.3,61.3,30.11,West,276,2.5,4.6,56,0.00,CLR,,0.00,WeatherDisplay:10.37,2013-05-08 18:22:00,
2013-05-08 14:27:00,78.3,60.8,30.10,NW,318,1.7,3.5,55,0.00,CLR,,0.00,WeatherDisplay:10.37,2013-05-08 18:27:00,
2013-05-08 14:32:00,78.9,62.4,30.10,NW,312,3.0,4.6,57,0.00,CLR,,0.00,WeatherDisplay:10.37,2013-05-08 18:32:00,
2013-05-08 14:37:00,78.7,61.7,30.10,WSW,246,3.2,4.6,56,0.00,CLR,,0.00,WeatherDisplay:10.37,2013-05-08 18:37:00,
2013-05-08 14:42:00,78.5,59.9,30.10,NW,322,3.4,5.8,53,0.00,CLR,,0.00,WeatherDisplay:10.37,2013-05-08 18:42:00,
2013-05-08 14:47:00,78.3,59.8,30.10,WSW,255,2.3,3.5,53,0.00,CLR,,0.00,WeatherDisplay:10.37,2013-05-08 18:47:00,
2013-05-08 14:52:00,78.1,60.6,30.10,SW,219,5.7,9.2,55,0.00,CLR,,0.00,WeatherDisplay:10.37,2013-05-08 18:52:00,
2013-05-08 14:57:00,78.2,60.2,30.10,West,270,2.2,4.6,54,0.00,CLR,,0.00,WeatherDisplay:10.37,2013-05-08 18:57:00,
2013-05-08 15:02:00,78.3,60.3,30.10,West,259,1.4,3.5,54,0.00,CLR,,0.00,WeatherDisplay:10.37,2013-05-08 19:02:00,
2013-05-08 15:07:00,78.5,59.9,30.10,SW,218,3.2,4.0,53,0.00,CLR,,0.00,WeatherDisplay:10.37,2013-05-08 19:07:00,
2013-05-08 15:12:00,78.2,60.2,30.10,NW,308,1.6,5.8,54,0.00,CLR,,0.00,WeatherDisplay:10.37,2013-05-08 19:12:00,
2013-05-08 15:17:00,78.5,60.5,30.10,WSW,240,1.8,5.8,54,0.00,CLR,,0.00,WeatherDisplay:10.37,2013-05-08 19:17:00,
2013-05-08 15:22:00,78.4,59.9,30.09,SW,227,3.2,9.2,53,0.00,CLR,,0.00,WeatherDisplay:10.37,2013-05-08 19:22:00,
2013-05-08 15:27:00,78.3,60.8,30.09,West,279,2.0,3.5,55,0.00,CLR,,0.00,WeatherDisplay:10.37,2013-05-08 19:27:00,
2013-05-08 15:32:00,78.1,60.1,30.09,WSW,256,1.3,6.9,54,0.00,CLR,,0.00,WeatherDisplay:10.37,2013-05-08 19:32:00,
2013-05-08 15:37:00,78.1,60.6,30.09,WNW,293,5.7,10.0,55,0.00,CLR,,0.00,WeatherDisplay:10.37,2013-05-08 19:37:00,
2013-05-08 15:42:00,77.8,60.3,30.09,NE,56,4.0,5.8,55,0.00,CLR,,0.00,WeatherDisplay:10.37,2013-05-08 19:42:00,
2013-05-08 15:47:00,78.0,60.0,30.09,SW,225,4.2,6.0,54,0.00,CLR,,0.00,WeatherDisplay:10.37,2013-05-08 19:47:00,
2013-05-08 15:52:00,77.8,59.3,30.09,North,349,1.6,3.5,53,0.00,CLR,,0.00,WeatherDisplay:10.37,2013-05-08 19:52:00,
2013-05-08 15:57:00,78.2,59.7,30.09,WNW,285,1.2,2.3,53,0.00,CLR,,0.00,WeatherDisplay:10.37,2013-05-08 19:57:00,
2013-05-08 16:02:00,78.6,60.0,30.08,WNW,295,2.0,6.9,53,0.00,CLR,,0.00,WeatherDisplay:10.37,2013-05-08 20:02:00,
2013-05-08 16:07:00,78.3,61.3,30.08,WSW,253,1.6,3.5,56,0.00,CLR,,0.00,WeatherDisplay:10.37,2013-05-08 20:07:00,
2013-05-08 16:12:00,78.4,59.9,30.08,ENE,58,2.2,6.0,53,0.00,CLR,,0.00,WeatherDisplay:10.37,2013-05-08 20:12:00,
2013-05-08 16:17:00,78.3,60.8,30.08,WNW,284,2.2,4.0,55,0.00,CLR,,0.00,WeatherDisplay:10.37,2013-05-08 20:17:00,
2013-05-08 16:22:00,78.1,60.1,30.08,NNE,15,2.7,5.0,54,0.00,CLR,,0.00,WeatherDisplay:10.37,2013-05-08 20:22:00,
2013-05-08 16:27:00,78.1,60.6,30.08,North,354,1.8,2.3,55,0.00,CLR,,0.00,WeatherDisplay:10.37,2013-05-08 20:27:00,
2013-05-08 16:32:00,78.2,60.7,30.08,West,267,3.6,6.9,55,0.00,CLR,,0.00,WeatherDisplay:10.37,2013-05-08 20:32:00,
2013-05-08 16:37:00,78.3,60.8,30.08,NW,309,2.3,4.6,55,0.00,CLR,,0.00,WeatherDisplay:10.37,2013-05-08 20:37:00,
2013-05-08 16:42:00,78.1,60.6,30.08,NW,309,2.6,6.9,55,0.00,CLR,,0.00,WeatherDisplay:10.37,2013-05-08 20:42:00,
2013-05-08 16:47:00,77.7,59.7,30.08,NNW,342,0.4,3.5,54,0.00,CLR,,0.00,WeatherDisplay:10.37,2013-05-08 20:47:00,
2013-05-08 16:52:00,77.8,60.3,30.08,West,263,2.5,5.8,55,0.00,CLR,,0.00,WeatherDisplay:10.37,2013-05-08 20:52:00,
2013-05-08 16:57:00,78.1,60.6,30.08,West,280,2.1,3.5,55,0.00,CLR,,0.00,WeatherDisplay:10.37,2013-05-08 20:57:00,
2013-05-08 17:02:00,78.1,61.1,30.08,West,264,1.9,3.5,56,0.00,CLR,,0.00,WeatherDisplay:10.37,2013-05-08 21:02:00,
2013-05-08 17:07:00,78.1,61.1,30.08,WSW,256,0.3,3.5,56,0.00,CLR,,0.00,WeatherDisplay:10.37,2013-05-08 21:07:00,
2013-05-08 17:12:00,78.3,60.3,30.08,WSW,256,3.7,6.9,54,0.00,CLR,,0.00,WeatherDisplay:10.37,2013-05-08 21:12:00,
2013-05-08 17:17:00,78.0,61.5,30.08,WNW,290,1.3,3.5,57,0.00,CLR,,0.00,WeatherDisplay:10.37,2013-05-08 21:17:00,
2013-05-08 17:22:00,77.9,60.9,30.08,North,350,1.3,3.5,56,0.00,CLR,,0.00,WeatherDisplay:10.37,2013-05-08 21:22:00,
2013-05-08 17:27:00,78.3,60.3,30.08,WNW,290,3.6,4.6,54,0.00,CLR,,0.00,WeatherDisplay:10.37,2013-05-08 21:27:00,
2013-05-08 17:32:00,78.0,61.0,30.08,NW,318,0.8,4.0,56,0.00,CLR,,0.00,WeatherDisplay:10.37,2013-05-08 21:32:00,
2013-05-08 17:37:00,77.9,60.9,30.08,NW,320,1.9,3.5,56,0.00,CLR,,0.00,WeatherDisplay:10.37,2013-05-08 21:37:00,
2013-05-08 17:42:00,77.8,59.8,30.08,NW,308,0.6,2.3,54,0.00,CLR,,0.00,WeatherDisplay:10.37,2013-05-08 21:42:00,
2013-05-08 17:47:00,78.5,61.5,30.08,WSW,247,0.9,2.0,56,0.00,CLR,,0.00,WeatherDisplay:10.37,2013-05-08 21:47:00,
2013-05-08 17:52:00,78.3,60.8,30.08,West,270,1.0,3.5,55,0.00,CLR,,0.00,WeatherDisplay:10.37,2013-05-08 21:52:00,
2013-05-08 17:57:00,77.7,61.7,30.08,SW,226,1.2,3.5,58,0.00,CLR,,0.00,WeatherDisplay:10.37,2013-05-08 21:57:00,
2013-05-08 18:02:00,77.2,60.8,30.08,West,279,1.8,5.8,57,0.00,CLR,,0.00,WeatherDisplay:10.37,2013-05-08 22:02:00,
2013-05-08 18:07:00,76.8,60.9,30.08,North,9,2.8,3.5,58,0.00,CLR,,0.00,WeatherDisplay:10.37,2013-05-08 22:07:00,
2013-05-08 18:12:00,77.0,61.1,30.08,WSW,250,1.7,3.5,58,0.00,CLR,,0.00,WeatherDisplay:10.37,2013-05-08 22:12:00,
2013-05-08 18:17:00,77.3,60.4,30.08,West,278,1.0,2.3,56,0.00,CLR,,0.00,WeatherDisplay:10.37,2013-05-08 22:17:00,
2013-05-08 18:22:00,77.1,61.7,30.08,SW,219,0.4,2.3,59,0.00,CLR,,0.00,WeatherDisplay:10.37,2013-05-08 22:22:00,
2013-05-08 18:27:00,76.7,61.8,30.08,West,281,1.3,3.5,60,0.00,CLR,,0.00,WeatherDisplay:10.37,2013-05-08 22:27:00,
2013-05-08 18:32:00,76.2,60.3,30.08,North,6,0.4,3.5,58,0.00,CLR,,0.00,WeatherDisplay:10.37,2013-05-08 22:32:00,
2013-05-08 18:37:00,76.0,61.1,30.08,SSW,198,0.7,2.3,60,0.00,CLR,,0.00,WeatherDisplay:10.37,2013-05-08 22:37:00,
2013-05-08 18:42:00,75.9,61.5,30.08,WSW,239,0.7,2.3,61,0.00,CLR,,0.00,WeatherDisplay:10.37,2013-05-08 22:42:00,
2013-05-08 18:47:00,75.7,61.8,30.08,NW,319,0.6,3.5,62,0.00,CLR,,0.00,WeatherDisplay:10.37,2013-05-08 22:47:00,
2013-05-08 18:52:00,75.7,61.8,30.08,NNW,338,0.4,1.1,62,0.00,CLR,,0.00,WeatherDisplay:10.37,2013-05-08 22:52:00,
2013-05-08 18:57:00,75.8,60.9,30.08,NNW,328,0.9,2.3,60,0.00,CLR,,0.00,WeatherDisplay:10.37,2013-05-08 22:57:00,
2013-05-08 19:02:00,75.3,61.4,30.08,NW,316,0.8,2.0,62,0.00,CLR,,0.00,WeatherDisplay:10.37,2013-05-08 23:02:00,
2013-05-08 19:07:00,75.1,61.6,30.08,NNW,333,0.9,2.3,63,0.00,CLR,,0.00,WeatherDisplay:10.37,2013-05-08 23:07:00,
2013-05-08 19:12:00,74.9,61.0,30.08,NE,53,0.1,3.5,62,0.00,CLR,,0.00,WeatherDisplay:10.37,2013-05-08 23:12:00,
2013-05-08 19:17:00,74.7,61.3,30.08,NNW,338,1.6,2.3,63,0.00,CLR,,0.00,WeatherDisplay:10.37,2013-05-08 23:17:00,
2013-05-08 19:22:00,74.1,61.6,30.08,NW,312,1.2,3.5,65,0.00,CLR,,0.00,WeatherDisplay:10.37,2013-05-08 23:22:00,
2013-05-08 19:27:00,73.6,61.5,30.08,West,271,1.1,2.3,66,0.00,CLR,,0.00,WeatherDisplay:10.37,2013-05-08 23:27:00,
2013-05-08 19:32:00,73.2,61.6,30.08,WNW,283,1.0,3.5,67,0.00,CLR,,0.00,WeatherDisplay:10.37,2013-05-08 23:32:00,
2013-05-08 19:37:00,72.9,61.3,30.08,West,281,1.1,2.3,67,0.00,CLR,,0.00,WeatherDisplay:10.37,2013-05-08 23:37:00,
2013-05-08 19:42:00,72.6,61.0,30.08,NE,43,1.5,3.5,67,0.00,CLR,,0.00,WeatherDisplay:10.37,2013-05-08 23:42:00,
2013-05-08 19:47:00,72.4,61.2,30.09,WNW,287,0.0,1.1,68,0.00,CLR,,0.00,WeatherDisplay:10.37,2013-05-08 23:47:00,
2013-05-08 19:52:00,72.2,61.5,30.09,NNW,335,0.0,1.1,69,0.00,CLR,,0.00,WeatherDisplay:10.37,2013-05-08 23:52:00,
2013-05-08 19:57:00,72.0,61.3,30.09,NNE,13,0.0,1.1,69,0.00,CLR,,0.00,WeatherDisplay:10.37,2013-05-08 23:57:00,
2013-05-08 20:02:00,71.8,61.1,30.09,West,280,0.0,2.3,69,0.00,CLR,,0.00,WeatherDisplay:10.37,2013-05-09 00:02:00,
2013-05-08 20:07:00,71.6,61.3,30.09,NNW,340,0.0,0.0,70,0.00,CLR,,0.00,WeatherDisplay:10.37,2013-05-09 00:07:00,
2013-05-08 20:12:00,71.4,61.5,30.09,NW,319,0.4,2.3,71,0.00,CLR,,0.00,WeatherDisplay:10.37,2013-05-09 00:12:00,
2013-05-08 20:17:00,71.2,61.3,30.09,ENE,67,0.0,1.0,71,0.00,CLR,,0.00,WeatherDisplay:10.37,2013-05-09 00:17:00,
2013-05-08 20:22:00,71.0,61.5,30.09,NNW,342,0.0,1.1,72,0.00,CLR,,0.00,WeatherDisplay:10.37,2013-05-09 00:22:00,
2013-05-08 20:27:00,70.9,61.4,30.09,NNW,338,0.0,0.0,72,0.00,CLR,,0.00,WeatherDisplay:10.37,2013-05-09 00:27:00,
2013-05-08 20:32:00,70.6,61.5,30.09,NW,308,0.0,0.0,73,0.00,CLR,,0.00,WeatherDisplay:10.37,2013-05-09 00:32:00,
2013-05-08 20:37:00,70.4,61.3,30.10,North,351,0.0,0.0,73,0.00,CLR,,0.00,WeatherDisplay:10.37,2013-05-09 00:37:00,
2013-05-08 20:42:00,70.3,61.6,30.10,NW,315,0.0,1.0,74,0.00,CLR,,0.00,WeatherDisplay:10.37,2013-05-09 00:42:00,
2013-05-08 20:47:00,70.2,61.9,30.10,NNW,345,0.2,1.1,75,0.00,CLR,,0.00,WeatherDisplay:10.37,2013-05-09 00:47:00,
2013-05-08 20:52:00,70.1,61.8,30.10,NE,46,0.0,1.1,75,0.00,CLR,,0.00,WeatherDisplay:10.37,2013-05-09 00:52:00,
2013-05-08 20:57:00,70.0,61.7,30.10,North,11,0.0,0.0,75,0.00,CLR,,0.00,WeatherDisplay:10.37,2013-05-09 00:57:00,
2013-05-08 21:02:00,69.9,62.0,30.10,NNW,340,0.0,1.1,76,0.00,CLR,,0.00,WeatherDisplay:10.37,2013-05-09 01:02:00,
2013-05-08 21:07:00,69.8,62.3,30.10,SW,232,0.0,0.0,77,0.00,CLR,,0.00,WeatherDisplay:10.37,2013-05-09 01:07:00,
2013-05-08 21:12:00,69.6,61.7,30.10,SW,232,0.0,0.0,76,0.00,CLR,,0.00,WeatherDisplay:10.37,2013-05-09 01:12:00,
2013-05-08 21:17:00,69.2,61.7,30.10,SW,232,0.0,0.0,77,0.00,CLR,,0.00,WeatherDisplay:10.37,2013-05-09 01:17:00,
2013-05-08 21:22:00,68.9,61.8,30.11,SW,232,0.0,0.0,78,0.00,CLR,,0.00,WeatherDisplay:10.37,2013-05-09 01:22:00,
2013-05-08 21:27:00,68.6,61.5,30.11,SW,232,0.0,0.0,78,0.00,CLR,,0.00,WeatherDisplay:10.37,2013-05-09 01:27:00,
2013-05-08 21:32:00,68.4,62.0,30.11,SW,232,0.0,0.0,80,0.00,CLR,,0.00,WeatherDisplay:10.37,2013-05-09 01:32:00,
2013-05-08 21:37:00,68.1,61.7,30.11,SW,232,0.0,0.0,80,0.00,CLR,,0.00,WeatherDisplay:10.37,2013-05-09 01:37:00,
2013-05-08 21:42:00,67.7,61.7,30.11,SW,232,0.0,0.0,81,0.00,CLR,,0.00,WeatherDisplay:10.37,2013-05-09 01:42:00,
2013-05-08 21:47:00,67.5,61.8,30.11,SW,232,0.0,0.0,82,0.00,CLR,,0.00,WeatherDisplay:10.37,2013-05-09 01:47:00,
2013-05-08 21:52:00,67.4,61.7,30.11,SW,232,0.0,0.0,82,0.00,CLR,,0.00,WeatherDisplay:10.37,2013-05-09 01:52:00,
2013-05-08 21:57:00,67.1,61.4,30.11,SW,232,0.0,0.0,82,0.00,CLR,,0.00,WeatherDisplay:10.37,2013-05-09 01:57:00,
2013-05-08 22:02:00,66.9,61.6,30.11,SW,232,0.0,0.0,83,0.00,CLR,,0.00,WeatherDisplay:10.37,2013-05-09 02:02:00,
2013-05-08 22:07:00,66.9,61.6,30.11,SW,232,0.0,0.0,83,0.00,CLR,,0.00,WeatherDisplay:10.37,2013-05-09 02:07:00,
2013-05-08 22:12:00,66.6,61.6,30.11,SW,232,0.0,0.0,84,0.00,CLR,,0.00,WeatherDisplay:10.37,2013-05-09 02:12:00,
2013-05-08 22:17:00,66.5,61.8,30.11,SW,232,0.0,0.0,85,0.00,CLR,,0.00,WeatherDisplay:10.37,2013-05-09 02:17:00,
2013-05-08 22:22:00,66.7,62.4,30.11,SW,232,0.0,0.0,86,0.00,CLR,,0.00,WeatherDisplay:10.37,2013-05-09 02:22:00,
2013-05-08 22:27:00,66.7,62.4,30.11,SW,232,0.0,0.0,86,0.00,CLR,,0.00,WeatherDisplay:10.37,2013-05-09 02:27:00,
2013-05-08 22:32:00,66.5,62.2,30.11,SW,232,0.0,0.0,86,0.00,CLR,,0.00,WeatherDisplay:10.37,2013-05-09 02:32:00,
2013-05-08 22:37:00,66.2,61.9,30.12,SW,232,0.0,0.0,86,0.00,CLR,,0.00,WeatherDisplay:10.37,2013-05-09 02:37:00,
2013-05-08 22:42:00,66.2,62.2,30.12,SW,232,0.0,0.0,87,0.00,CLR,,0.00,WeatherDisplay:10.37,2013-05-09 02:42:00,
2013-05-08 22:47:00,66.1,62.4,30.12,SW,232,0.0,0.0,88,0.00,CLR,,0.00,WeatherDisplay:10.37,2013-05-09 02:47:00,
2013-05-08 22:52:00,65.9,61.9,30.12,SW,232,0.0,0.0,87,0.00,CLR,,0.00,WeatherDisplay:10.37,2013-05-09 02:52:00,
2013-05-08 22:57:00,65.7,62.0,30.12,SW,232,0.0,0.0,88,0.00,CLR,,0.00,WeatherDisplay:10.37,2013-05-09 02:57:00,
2013-05-08 23:02:00,65.5,61.9,30.12,SW,232,0.0,0.0,88,0.00,CLR,,0.00,WeatherDisplay:10.37,2013-05-09 03:02:00,
2013-05-08 23:07:00,65.3,62.0,30.12,SW,232,0.0,0.0,89,0.00,CLR,,0.00,WeatherDisplay:10.37,2013-05-09 03:07:00,
2013-05-08 23:12:00,65.2,61.9,30.12,SW,232,0.0,0.0,89,0.00,CLR,,0.00,WeatherDisplay:10.37,2013-05-09 03:12:00,
2013-05-08 23:17:00,64.9,61.6,30.12,SW,232,0.0,0.0,89,0.00,CLR,,0.00,WeatherDisplay:10.37,2013-05-09 03:17:00,
2013-05-08 23:22:00,64.8,61.5,30.12,SW,232,0.0,0.0,89,0.00,CLR,,0.00,WeatherDisplay:10.37,2013-05-09 03:22:00,
2013-05-08 23:27:00,64.6,61.6,30.13,SW,232,0.0,0.0,90,0.00,CLR,,0.00,WeatherDisplay:10.37,2013-05-09 03:27:00,
2013-05-08 23:32:00,64.5,61.5,30.12,SW,232,0.0,0.0,90,0.00,CLR,,0.00,WeatherDisplay:10.37,2013-05-09 03:32:00,
2013-05-08 23:37:00,64.5,61.5,30.13,SW,232,0.0,0.0,90,0.00,CLR,,0.00,WeatherDisplay:10.37,2013-05-09 03:37:00,
2013-05-08 23:42:00,64.6,61.6,30.13,SW,232,0.0,0.0,90,0.00,CLR,,0.00,WeatherDisplay:10.37,2013-05-09 03:42:00,
2013-05-08 23:47:00,64.5,61.5,30.13,SW,232,0.0,0.0,90,0.00,CLR,,0.00,WeatherDisplay:10.37,2013-05-09 03:47:00,
2013-05-08 23:52:00,64.4,61.4,30.13,SW,232,0.0,0.0,90,0.00,CLR,,0.00,WeatherDisplay:10.37,2013-05-09 03:52:00,
2013-05-08 23:57:00,64.3,61.6,30.13,SW,232,0.0,0.0,91,0.00,CLR,,0.00,WeatherDisplay:10.37,2013-05-09 03:57:00,